Weather History for Appleton, MN

Change the Weather History Date:

Saturday, June 15, 2013

  Actual Average Record
Temperature  
Mean Temperature 71 °F -  
Max Temperature 80 °F 74 °F 89 °F (2003)
Min Temperature 62 °F 53 °F 48 °F (1999)
Cooling Degree Days 6    
Growing Degree Days 21 (Base 50)    
Moisture  
Dew Point 52 °F    
Average Humidity 55    
Maximum Humidity 94    
Minimum Humidity 23    
Precipitation  
Precipitation 0.00 in - - ()
Sea Level Pressure  
Sea Level Pressure 29.89 in    
Wind  
Wind Speed 8 mph (NW)    
Max Wind Speed 16 mph    
Max Gust Speed 20 mph    
Visibility 10 miles    
Events      
Averages and records for this station are not official NWS values.
T = Trace of Precipitation, MM = Missing Value Source: NWS Daily Summary

Daily Weather History Graph

Daily Weather History Graph

Search for Another Location

Airport:

Trip Planner

Search our weather history database for the weather conditions in past years. The results will help you decide how hot, cold, wet, or windy it might be!

Date:

Astronomy

Jun. 15, 2013 Rise Set
Actual Time 5:35 AM CDT 9:13 PM CDT
Civil Twilight 4:58 AM CDT 9:51 PM CDT
Nautical Twilight 4:08 AM CDT 10:41 PM CDT
Astronomical Twilight 3:01 AM CDT 11:48 PM CDT
Moon 12:28 PM CDT (6/15) 12:33 AM CDT (6/15)
Length of Visible Light 16h 53m
Length of Day
15h 37m
Waxing Crescent, 40% of the Moon is Illuminated
Jun 15
Waxing Crescent
Jun 16
First Quarter
Jun 23
Full
Jun 29
Last Quarter
Jul 8
New

Hourly Weather History & Observations

Time (CDT) Temp. Dew Point Humidity Pressure Visibility Wind Dir Wind Speed Gust Speed Precip Events Conditions
12:13 AM 69.8 °F 62.6 °F 78% 29.81 in 10.0 mi SE 10.4 mph - N/A   Clear
12:33 AM 69.8 °F 62.6 °F 78% 29.81 in 10.0 mi SE 9.2 mph - N/A   Clear
12:53 AM 69.8 °F 62.6 °F 78% 29.83 in 10.0 mi SE 10.4 mph - N/A   Clear
1:13 AM 69.8 °F 62.6 °F 78% 29.84 in 10.0 mi SE 8.1 mph - N/A   Clear
1:33 AM 69.8 °F 62.6 °F 78% 29.84 in 10.0 mi SE 8.1 mph - N/A   Clear
1:53 AM 69.8 °F 62.6 °F 78% 29.84 in 10.0 mi SSE 8.1 mph - N/A   Clear
2:13 AM 69.8 °F 64.4 °F 83% 29.84 in 10.0 mi South 5.8 mph - N/A   Clear
2:34 AM 69.8 °F 64.4 °F 83% 29.84 in 10.0 mi South 4.6 mph - N/A   Clear
2:53 AM 68.0 °F 62.6 °F 83% 29.84 in 10.0 mi SSW 4.6 mph - N/A   Clear
3:13 AM 66.2 °F 62.6 °F 88% 29.84 in 10.0 mi West 3.5 mph - N/A   Clear
3:33 AM 64.4 °F 60.8 °F 88% 29.84 in 10.0 mi NW 3.5 mph - N/A   Clear
3:53 AM 64.4 °F 60.8 °F 88% 29.83 in 10.0 mi Calm Calm - N/A   Clear
4:13 AM 62.6 °F 60.8 °F 94% 29.83 in 7.0 mi Calm Calm - N/A   Clear
4:33 AM 62.6 °F 59.0 °F 88% 29.83 in 4.0 mi Calm Calm - N/A   Clear
4:54 AM 62.6 °F 60.8 °F 94% 29.86 in 5.0 mi WNW 3.5 mph - N/A   Clear
5:13 AM 62.6 °F 59.0 °F 88% 29.86 in 5.0 mi WNW 4.6 mph - N/A   Clear
5:33 AM 62.6 °F 60.8 °F 94% 29.85 in 7.0 mi West 4.6 mph - N/A   Clear
5:53 AM 64.4 °F 62.6 °F 94% 29.86 in 10.0 mi WNW 6.9 mph - N/A   Clear
6:14 AM 66.2 °F 62.6 °F 88% 29.88 in 10.0 mi WNW 9.2 mph - N/A   Clear
6:33 AM 66.2 °F 62.6 °F 88% 29.91 in 10.0 mi NW 11.5 mph - N/A   Clear
6:53 AM 66.2 °F 60.8 °F 83% 29.91 in 10.0 mi NW 13.8 mph 18.4 mph N/A   Clear
7:14 AM 66.2 °F 59.0 °F 78% 29.90 in 10.0 mi NNW 16.1 mph - N/A   Clear
7:33 AM 66.2 °F 55.4 °F 68% 29.88 in 10.0 mi North 16.1 mph - N/A   Clear
7:54 AM 68.0 °F 55.4 °F 64% 29.89 in 10.0 mi North 13.8 mph - N/A   Clear
8:13 AM 69.8 °F 55.4 °F 60% 29.91 in 10.0 mi North 11.5 mph - N/A   Clear
8:33 AM 69.8 °F 55.4 °F 60% 29.93 in 10.0 mi NNW 10.4 mph - N/A   Clear
8:54 AM 69.8 °F 55.4 °F 60% 29.93 in 10.0 mi NNW 12.7 mph - N/A   Clear
9:13 AM 71.6 °F 53.6 °F 53% 29.95 in 10.0 mi NNW 10.4 mph - N/A   Clear
9:33 AM 71.6 °F 53.6 °F 53% 29.94 in 10.0 mi North 11.5 mph - N/A   Clear
9:53 AM 71.6 °F 51.8 °F 50% 29.94 in 10.0 mi North 10.4 mph - N/A   Clear
10:13 AM 71.6 °F 51.8 °F 50% 29.94 in 10.0 mi North 9.2 mph - N/A   Clear
10:33 AM 71.6 °F 50.0 °F 46% 29.93 in 10.0 mi North 10.4 mph - N/A   Clear
10:53 AM 71.6 °F 51.8 °F 50% 29.93 in 10.0 mi North 8.1 mph - N/A   Clear
11:13 AM 73.4 °F 50.0 °F 44% 29.92 in 10.0 mi NNE 8.1 mph - N/A   Clear
11:33 AM 73.4 °F 51.8 °F 47% 29.91 in 10.0 mi North 9.2 mph - N/A   Clear
11:53 AM 73.4 °F 51.8 °F 47% 29.90 in 10.0 mi North 11.5 mph - N/A   Clear
12:14 PM 73.4 °F 51.8 °F 47% 29.92 in 10.0 mi North 9.2 mph 16.1 mph N/A   Clear
12:33 PM 75.2 °F 51.8 °F 44% 29.94 in 10.0 mi NNW 5.8 mph - N/A   Clear
12:53 PM 75.2 °F 50.0 °F 41% 29.93 in 10.0 mi Calm Calm - N/A   Clear
1:13 PM 77.0 °F 48.2 °F 36% 29.93 in 10.0 mi NNW 9.2 mph - N/A   Clear
1:33 PM 78.8 °F 48.2 °F 34% 29.93 in 10.0 mi North 11.5 mph - N/A   Clear
1:53 PM 78.8 °F 46.4 °F 32% 29.93 in 10.0 mi NNW 10.4 mph - N/A   Clear
2:13 PM 78.8 °F 46.4 °F 32% 29.92 in 10.0 mi North 9.2 mph 17.3 mph N/A   Clear
2:33 PM 78.8 °F 44.6 °F 30% 29.92 in 10.0 mi NNW 4.6 mph - N/A   Clear
2:53 PM 80.6 °F 42.8 °F 26% 29.92 in 10.0 mi North 9.2 mph - N/A   Clear
3:13 PM 80.6 °F 39.2 °F 23% 29.91 in 10.0 mi NW 6.9 mph 16.1 mph N/A   Clear
3:33 PM 80.6 °F 39.2 °F 23% 29.91 in 10.0 mi NNW 6.9 mph - N/A   Clear
3:54 PM 80.6 °F 39.2 °F 23% 29.90 in 10.0 mi Calm Calm - N/A   Clear
4:13 PM 80.6 °F 39.2 °F 23% 29.90 in 10.0 mi NW 3.5 mph - N/A   Clear
4:33 PM 80.6 °F 42.8 °F 26% 29.90 in 10.0 mi WNW 9.2 mph - N/A   Clear
4:53 PM 78.8 °F 41.0 °F 26% 29.89 in 10.0 mi WNW 11.5 mph - N/A   Scattered Clouds
5:13 PM 80.6 °F 42.8 °F 26% 29.89 in 10.0 mi NW 9.2 mph - N/A   Clear
5:33 PM 80.6 °F 42.8 °F 26% 29.88 in 10.0 mi WNW 9.2 mph - N/A   Clear
5:53 PM 80.6 °F 42.8 °F 26% 29.88 in 10.0 mi WNW 4.6 mph - N/A   Clear
6:13 PM 80.6 °F 44.6 °F 28% 29.87 in 10.0 mi West 8.1 mph - N/A   Clear
6:33 PM 80.6 °F 44.6 °F 28% 29.87 in 10.0 mi West 10.4 mph - N/A   Clear
6:53 PM 80.6 °F 44.6 °F 28% 29.87 in 10.0 mi West 10.4 mph - N/A   Clear
7:13 PM 80.6 °F 41.0 °F 24% 29.87 in 10.0 mi West 15.0 mph 19.6 mph N/A   Clear
7:33 PM 78.8 °F 39.2 °F 24% 29.87 in 10.0 mi WNW 13.8 mph - N/A   Clear
7:53 PM 78.8 °F 42.8 °F 28% 29.87 in 10.0 mi WNW 10.4 mph - N/A   Clear
8:14 PM 75.2 °F 44.6 °F 34% 29.88 in 10.0 mi West 4.6 mph - N/A   Clear
8:33 PM 75.2 °F 46.4 °F 36% 29.88 in 10.0 mi West 4.6 mph - N/A   Clear
8:53 PM 73.4 °F 46.4 °F 38% 29.87 in 10.0 mi WSW 3.5 mph - N/A   Clear
9:13 PM 73.4 °F 48.2 °F 41% 29.88 in 10.0 mi Calm Calm - N/A   Clear
9:33 PM 69.8 °F 51.8 °F 53% 29.88 in 10.0 mi SW 3.5 mph - N/A   Clear
9:53 PM 66.2 °F 57.2 °F 73% 29.89 in 10.0 mi SW 3.5 mph - N/A   Clear
10:14 PM 66.2 °F 50.0 °F 56% 29.90 in 10.0 mi WSW 4.6 mph - N/A   Clear
10:33 PM 64.4 °F 50.0 °F 59% 29.91 in 10.0 mi WSW 5.8 mph - N/A   Clear
10:53 PM 64.4 °F 48.2 °F 56% 29.91 in 10.0 mi SW 5.8 mph - N/A   Clear
11:13 PM 64.4 °F 50.0 °F 59% 29.91 in 10.0 mi SW 5.8 mph - N/A   Clear
11:33 PM 64.4 °F 50.0 °F 59% 29.91 in 10.0 mi SW 5.8 mph - N/A   Clear
11:54 PM 62.6 °F 51.8 °F 68% 29.92 in 10.0 mi WSW 5.8 mph - N/A   Clear